Wind Gusting 14 knots
11
February 26, 2017 11:19 PM EST
Weather Information
Wind Direction
  220 °
Wind Speed
  11 kt (13 mph)
Wind Gust
  14 kt (16 mph)
Altimeter
30.08 in
Visibility
10 SM
Temperature
03° C
37° F
Dewpoint
-06° C
21° F
Humidity
52%
1hr Rain Fall
00.00 in.
24hr Rain Fall
00.00 in.
Sky Condition
Clear
VFR

METAR KONZ 270419Z AUTO 22011G14KT 10SM CLR 03/M06 A3008 RMK AO2 T00301058

*Background is not an actual portrayal of the airport.